Terminal Aerodrome Forecast
Issued by NWS

Home | Current Version | Previous Version | Text Only | Print | Product List | Glossary On
Versions: 1 2 3 4 5 6 7 8 9 10 11 12 13 14 15 16 17
000
FTUS42 KMLB 061736
TAFTIX
TAF
KTIX 061736Z 0618/0718 32013G20KT P6SM FEW050
     FM070000 VRB04KT P6SM SKC
     FM070300 23005KT P6SM SKC
     FM071400 30012KT P6SM FEW040=

USA.gov is the U.S. government's official web portal to all federal, state and local government web resources and services.